createdAt,value
2022-08-16T00:00:38.722Z,6.60
2022-08-16T00:03:13.378Z,9.50
2022-08-16T00:05:48.170Z,5.18
2022-08-16T00:08:30.642Z,6.22
2022-08-16T00:11:06.343Z,7.82
2022-08-16T00:13:41.667Z,8.40
2022-08-16T00:17:05.839Z,7.32
2022-08-16T00:19:01.540Z,7.57
2022-08-16T00:21:32.018Z,7.72
2022-08-16T00:24:04.665Z,7.07
2022-08-16T00:26:38.558Z,6.35
2022-08-16T00:29:16.945Z,9.77
2022-08-16T00:32:00.819Z,14.95
2022-08-16T00:34:44.088Z,9.73
2022-08-16T00:37:17.217Z,9.02
2022-08-16T00:39:58.396Z,10.52
2022-08-16T00:42:31.748Z,10.75
2022-08-16T00:45:09.251Z,11.02
2022-08-16T00:47:49.407Z,14.13
2022-08-16T00:50:21.555Z,13.63
2022-08-16T00:53:06.193Z,12.15
2022-08-16T00:55:38.326Z,12.45
2022-08-16T00:58:12.719Z,13.95
2022-08-16T01:00:54.034Z,13.52
2022-08-16T01:03:30.237Z,17.05
2022-08-16T01:06:40.340Z,14.68
2022-08-16T01:08:53.435Z,14.85
2022-08-16T01:11:25.349Z,14.15
2022-08-16T01:14:03.997Z,20.77
2022-08-16T01:16:36.139Z,15.65
2022-08-16T01:19:13.750Z,11.60
2022-08-16T01:21:51.071Z,20.00
2022-08-16T01:24:52.467Z,16.05
2022-08-16T01:27:18.581Z,15.68
2022-08-16T01:29:57.703Z,14.57
2022-08-16T01:32:31.937Z,15.18
2022-08-16T01:35:07.385Z,11.93
2022-08-16T01:37:42.729Z,17.52
2022-08-16T01:40:16.882Z,15.15
2022-08-16T01:42:48.192Z,19.88
2022-08-16T01:45:20.090Z,12.98
2022-08-16T01:47:52.283Z,18.75
2022-08-16T01:50:42.185Z,16.42
2022-08-16T01:53:14.228Z,15.48
2022-08-16T01:56:03.330Z,14.85
2022-08-16T01:58:35.063Z,14.55
2022-08-16T02:01:08.187Z,14.82
2022-08-16T02:03:38.113Z,16.27
2022-08-16T02:06:09.508Z,19.40
2022-08-16T02:08:38.556Z,14.07
2022-08-16T02:11:10.591Z,14.13
2022-08-16T02:13:41.915Z,17.35
2022-08-16T02:16:18.338Z,14.95
2022-08-16T02:18:48.449Z,13.82
2022-08-16T02:21:31.198Z,17.95
2022-08-16T02:24:01.816Z,15.75
2022-08-16T02:26:34.208Z,14.20
2022-08-16T02:29:03.930Z,13.85
2022-08-16T02:32:02.863Z,16.50
2022-08-16T02:34:32.744Z,17.45
2022-08-16T02:37:04.141Z,14.05
2022-08-16T02:39:35.052Z,15.68
2022-08-16T02:42:06.343Z,20.80
2022-08-16T02:44:36.178Z,19.08
2022-08-16T02:47:12.183Z,16.00
2022-08-16T02:50:03.207Z,16.00
2022-08-16T02:52:44.757Z,14.30
2022-08-16T02:55:19.890Z,14.90
2022-08-16T02:58:10.372Z,16.33
2022-08-16T03:00:45.613Z,15.25
2022-08-16T03:03:20.517Z,16.67
2022-08-16T03:05:52.563Z,18.73
2022-08-16T03:08:50.762Z,16.60
2022-08-16T03:11:21.807Z,12.85
2022-08-16T03:13:56.648Z,19.48
2022-08-16T03:16:38.374Z,15.50
2022-08-16T03:19:12.368Z,14.32
2022-08-16T03:21:41.540Z,14.32
2022-08-16T03:24:28.405Z,13.93
2022-08-16T03:27:01.785Z,15.10
2022-08-16T03:29:34.903Z,21.45
2022-08-16T03:32:07.377Z,17.40
2022-08-16T03:34:36.856Z,15.18
2022-08-16T03:37:06.729Z,18.10
2022-08-16T03:39:42.782Z,18.08
2022-08-16T03:42:20.456Z,19.98
2022-08-16T03:45:03.463Z,18.48
2022-08-16T03:47:36.148Z,16.83
2022-08-16T03:50:25.791Z,21.98
2022-08-16T03:53:04.118Z,19.30
2022-08-16T03:55:45.606Z,17.20
2022-08-16T03:58:15.855Z,22.73
2022-08-16T04:00:46.743Z,25.60
2022-08-16T04:03:26.083Z,23.90
2022-08-16T04:05:59.173Z,20.70
2022-08-16T04:08:31.082Z,21.63
2022-08-16T04:11:03.663Z,27.23
2022-08-16T04:14:00.856Z,22.88
2022-08-16T04:16:28.311Z,21.30
2022-08-16T04:19:31.805Z,20.27
2022-08-16T04:22:02.373Z,21.50
2022-08-16T04:24:54.803Z,22.70
2022-08-16T04:27:31.824Z,27.02
2022-08-16T04:30:03.772Z,19.08
2022-08-16T04:32:40.737Z,21.17
2022-08-16T04:35:17.417Z,18.35
2022-08-16T04:37:48.367Z,18.50
2022-08-16T04:40:28.025Z,17.77
2022-08-16T04:43:00.589Z,19.15
2022-08-16T04:45:35.864Z,23.20
2022-08-16T04:48:11.275Z,17.73
2022-08-16T04:50:59.234Z,20.08
2022-08-16T04:53:45.343Z,18.83
2022-08-16T04:56:17.093Z,18.70
2022-08-16T04:58:47.431Z,17.58
2022-08-16T05:01:19.644Z,23.75
2022-08-16T05:03:59.862Z,21.35
2022-08-16T05:06:44.780Z,16.92
2022-08-16T05:09:18.955Z,18.92
2022-08-16T05:11:52.862Z,22.02
2022-08-16T05:14:45.810Z,20.80
2022-08-16T05:17:19.748Z,19.23
2022-08-16T05:19:57.898Z,21.67
2022-08-16T05:22:30.175Z,19.10
2022-08-16T05:25:09.215Z,19.92
2022-08-16T05:27:43.367Z,19.67
2022-08-16T05:30:35.506Z,17.98
2022-08-16T05:33:16.875Z,17.58
2022-08-16T05:35:54.992Z,19.13
2022-08-16T05:38:57.424Z,21.42
2022-08-16T05:41:28.730Z,19.38
2022-08-16T05:44:00.298Z,21.80
2022-08-16T05:46:43.787Z,23.17
2022-08-16T05:49:22.196Z,22.13
2022-08-16T05:51:56.725Z,24.90
2022-08-16T05:54:29.060Z,19.90
2022-08-16T05:57:00.965Z,20.10
2022-08-16T05:59:31.541Z,21.45
2022-08-16T06:02:01.543Z,23.30
2022-08-16T06:04:37.435Z,18.67
2022-08-16T06:07:26.655Z,25.17
2022-08-16T06:10:32.086Z,27.17
2022-08-16T06:13:03.866Z,28.88
2022-08-16T06:15:33.877Z,29.67
2022-08-16T06:18:05.744Z,26.13
2022-08-16T06:20:55.039Z,22.77
2022-08-16T06:23:27.283Z,23.92
2022-08-16T06:26:07.377Z,27.60
2022-08-16T06:28:40.087Z,26.58
2022-08-16T06:31:16.786Z,25.90
2022-08-16T06:33:49.462Z,23.92
2022-08-16T06:36:21.979Z,19.95
2022-08-16T06:39:06.537Z,24.65
2022-08-16T06:42:07.960Z,23.33
2022-08-16T06:44:57.973Z,28.40
2022-08-16T06:47:53.725Z,22.00
2022-08-16T06:50:29.727Z,21.90
2022-08-16T06:53:08.397Z,22.13
2022-08-16T06:55:44.582Z,23.00
2022-08-16T06:58:21.976Z,19.55
2022-08-16T07:00:58.143Z,20.40
2022-08-16T07:03:32.462Z,15.90
2022-08-16T07:06:04.248Z,19.25
2022-08-16T07:08:38.964Z,16.63
2022-08-16T07:11:10.898Z,16.10
2022-08-16T07:14:01.923Z,16.33
2022-08-16T07:16:35.277Z,15.93
2022-08-16T07:19:04.681Z,13.75
2022-08-16T07:21:45.547Z,13.57
2022-08-16T07:24:29.519Z,18.48
2022-08-16T07:27:08.541Z,14.18
2022-08-16T07:29:43.491Z,17.38
2022-08-16T07:32:13.821Z,21.90
2022-08-16T07:34:48.297Z,13.30
2022-08-16T07:37:23.120Z,16.52
2022-08-16T07:40:11.537Z,14.23
2022-08-16T07:42:46.922Z,16.98
2022-08-16T07:45:16.979Z,13.32
2022-08-16T07:47:51.163Z,16.83
2022-08-16T07:50:57.851Z,8.50
2022-08-16T07:53:11.277Z,9.98
2022-08-16T07:55:47.614Z,12.63
2022-08-16T07:58:35.011Z,7.68
2022-08-16T08:01:10.969Z,8.18
2022-08-16T08:03:48.952Z,8.50
2022-08-16T08:06:25.109Z,6.50
2022-08-16T08:08:57.186Z,10.02
2022-08-16T08:11:28.568Z,5.35
2022-08-16T08:14:03.868Z,7.93
2022-08-16T08:16:45.466Z,8.18
2022-08-16T08:19:23.838Z,6.50
2022-08-16T08:22:01.212Z,9.60
2022-08-16T08:24:51.654Z,7.07
2022-08-16T08:27:23.626Z,13.45
2022-08-16T08:30:49.205Z,7.25
2022-08-16T08:32:59.473Z,5.05
2022-08-16T08:35:34.397Z,11.18
2022-08-16T08:38:08.810Z,5.13
2022-08-16T08:40:44.825Z,5.47
2022-08-16T08:43:18.269Z,6.30
2022-08-16T08:46:00.506Z,4.25
2022-08-16T08:48:34.805Z,5.00
2022-08-16T08:51:11.672Z,7.65
2022-08-16T08:54:09.154Z,7.05
2022-08-16T08:56:45.492Z,6.47
2022-08-16T08:59:41.707Z,5.22
2022-08-16T09:02:19.567Z,14.27
2022-08-16T09:04:53.810Z,5.68
2022-08-16T09:07:26.324Z,4.50
2022-08-16T09:10:06.099Z,4.93
2022-08-16T09:12:37.615Z,6.97
2022-08-16T09:15:13.912Z,7.78
2022-08-16T09:17:51.573Z,8.57
2022-08-16T09:20:25.588Z,7.38
2022-08-16T09:22:56.058Z,9.38
2022-08-16T09:25:34.450Z,5.72
2022-08-16T09:28:11.555Z,10.25
2022-08-16T09:30:47.442Z,6.57
2022-08-16T09:33:21.318Z,5.63
2022-08-16T09:35:53.642Z,17.23
2022-08-16T09:38:31.802Z,10.15
2022-08-16T09:41:02.919Z,7.90
2022-08-16T09:43:58.106Z,7.40
2022-08-16T09:46:44.342Z,8.98
2022-08-16T09:49:14.727Z,9.00
2022-08-16T09:51:45.079Z,6.60
2022-08-16T09:54:17.046Z,9.82
2022-08-16T09:56:53.300Z,8.35
2022-08-16T09:59:25.276Z,8.30
2022-08-16T10:01:56.902Z,6.68
2022-08-16T10:04:38.951Z,8.85
2022-08-16T10:07:19.299Z,9.20
2022-08-16T10:09:54.834Z,5.13
2022-08-16T10:12:44.626Z,5.55
2022-08-16T10:15:17.413Z,8.07
2022-08-16T10:18:01.433Z,8.43
2022-08-16T10:20:35.481Z,12.10
2022-08-16T10:23:09.802Z,11.18
2022-08-16T10:27:18.202Z,10.75
2022-08-16T10:28:32.207Z,8.82
2022-08-16T10:31:14.668Z,5.38
2022-08-16T10:33:58.959Z,8.65
2022-08-16T10:36:39.132Z,6.35
2022-08-16T10:39:09.703Z,6.05
2022-08-16T10:41:38.737Z,4.18
2022-08-16T10:44:09.576Z,8.45
2022-08-16T10:46:41.785Z,9.55
2022-08-16T10:49:12.977Z,6.65
2022-08-16T10:52:02.977Z,4.35
2022-08-16T10:54:58.392Z,4.28
2022-08-16T10:57:25.705Z,3.78
2022-08-16T11:00:04.770Z,8.25
2022-08-16T11:02:57.740Z,7.55
2022-08-16T11:05:23.452Z,5.55
2022-08-16T11:07:54.134Z,6.78
2022-08-16T11:13:58.374Z,5.07
2022-08-16T11:19:03.481Z,5.85
2022-08-16T11:21:37.467Z,8.30
2022-08-16T11:24:42.511Z,7.85
2022-08-16T11:27:19.640Z,4.68
2022-08-16T11:29:51.955Z,4.70
2022-08-16T11:32:22.632Z,12.20
2022-08-16T11:35:10.438Z,5.25
2022-08-16T11:40:46.890Z,7.65
2022-08-16T11:43:26.367Z,9.60
2022-08-16T11:45:58.305Z,4.30
2022-08-16T11:48:33.421Z,10.82
2022-08-16T11:51:03.249Z,6.88
2022-08-16T11:53:35.723Z,9.65
2022-08-16T11:56:07.028Z,8.10
2022-08-16T11:58:39.491Z,5.93
2022-08-16T12:01:11.043Z,5.22
2022-08-16T12:03:41.783Z,3.90
2022-08-16T12:06:24.962Z,8.02
2022-08-16T12:09:02.064Z,10.57
2022-08-16T12:11:33.408Z,8.30
2022-08-16T12:14:04.220Z,8.70
2022-08-16T12:16:34.985Z,8.85
2022-08-16T12:19:05.329Z,4.28
2022-08-16T12:21:36.160Z,4.88
2022-08-16T12:24:24.313Z,4.35
2022-08-16T12:26:55.388Z,8.30
2022-08-16T12:29:25.917Z,10.38
2022-08-16T12:32:12.224Z,8.55
2022-08-16T12:34:52.834Z,14.55
2022-08-16T12:37:24.417Z,8.38
2022-08-16T12:39:55.878Z,10.80
2022-08-16T12:42:35.578Z,8.40
2022-08-16T12:45:07.409Z,6.45
2022-08-16T12:48:09.918Z,6.35
2022-08-16T12:50:43.939Z,8.27
2022-08-16T12:53:20.544Z,9.27
2022-08-16T12:55:50.678Z,7.60
2022-08-16T12:58:50.566Z,9.20
2022-08-16T13:01:13.044Z,6.25
2022-08-16T13:03:45.234Z,6.03
2022-08-16T13:06:20.203Z,10.27
2022-08-16T13:09:02.274Z,6.30
2022-08-16T13:11:37.813Z,8.32
2022-08-16T13:14:08.344Z,8.48
2022-08-16T13:16:48.587Z,3.13
2022-08-16T13:19:18.332Z,5.00
2022-08-16T13:21:49.976Z,7.03
2022-08-16T13:24:19.889Z,10.02
2022-08-16T13:26:53.138Z,5.65
2022-08-16T13:29:23.933Z,11.05
2022-08-16T13:31:53.195Z,5.60
2022-08-16T13:34:25.129Z,5.32
2022-08-16T13:36:54.715Z,6.00
2022-08-16T13:39:26.166Z,7.00
2022-08-16T13:41:55.739Z,5.30
2022-08-16T13:44:48.904Z,3.28
2022-08-16T13:47:15.610Z,4.30
2022-08-16T13:49:46.381Z,4.85
2022-08-16T13:52:15.470Z,8.73
2022-08-16T13:54:44.727Z,3.10
2022-08-16T13:57:14.532Z,6.30
2022-08-16T13:59:46.171Z,4.68
2022-08-16T14:02:19.489Z,8.48
2022-08-16T14:05:05.285Z,6.78
2022-08-16T14:07:35.352Z,5.00
2022-08-16T14:10:12.753Z,3.75
2022-08-16T14:12:44.836Z,4.70
2022-08-16T14:15:17.386Z,6.28
2022-08-16T14:18:15.454Z,2.45
2022-08-16T14:20:35.969Z,6.63
2022-08-16T14:23:07.732Z,5.63
2022-08-16T14:25:37.212Z,6.40
2022-08-16T14:28:06.484Z,5.63
2022-08-16T14:30:40.676Z,8.77
2022-08-16T14:33:10.515Z,6.03
2022-08-16T14:35:49.306Z,6.72
2022-08-16T14:38:23.667Z,4.82
2022-08-16T14:40:55.368Z,7.55
2022-08-16T14:43:26.055Z,8.63
2022-08-16T14:46:00.628Z,5.63
2022-08-16T14:48:30.944Z,4.05
2022-08-16T14:51:00.566Z,7.70
2022-08-16T14:53:32.705Z,4.55
2022-08-16T14:56:02.508Z,7.47
2022-08-16T14:58:36.762Z,5.43
2022-08-16T15:01:09.790Z,4.30
2022-08-16T15:03:42.311Z,12.95
2022-08-16T15:06:14.582Z,7.93
2022-08-16T15:08:45.820Z,4.35
2022-08-16T15:11:15.180Z,9.05
2022-08-16T15:13:46.866Z,3.60
2022-08-16T15:16:17.905Z,7.82
2022-08-16T15:18:47.382Z,7.28
2022-08-16T15:21:16.683Z,4.50
2022-08-16T15:23:45.849Z,5.93
2022-08-16T15:26:29.583Z,6.53
2022-08-16T15:29:05.674Z,6.55
2022-08-16T15:31:41.380Z,7.15
2022-08-16T15:34:13.008Z,10.77
2022-08-16T15:36:48.696Z,8.50
2022-08-16T15:39:31.728Z,5.15
2022-08-16T15:42:11.249Z,3.67
2022-08-16T15:44:52.016Z,5.10
2022-08-16T15:47:26.970Z,4.97
2022-08-16T15:49:57.820Z,3.60
2022-08-16T15:52:31.186Z,6.72
2022-08-16T15:55:13.192Z,3.70
2022-08-16T15:57:51.339Z,7.10
2022-08-16T16:00:21.056Z,4.85
2022-08-16T16:03:02.046Z,4.95
2022-08-16T16:05:32.468Z,5.18
2022-08-16T16:08:11.066Z,7.63
2022-08-16T16:10:44.535Z,4.57
2022-08-16T16:13:24.576Z,9.23
2022-08-16T16:15:55.971Z,10.85
2022-08-16T16:18:29.890Z,5.47
2022-08-16T16:21:01.290Z,11.27
2022-08-16T16:23:32.715Z,6.68
2022-08-16T16:26:05.789Z,6.30
2022-08-16T16:29:05.339Z,4.35
2022-08-16T16:31:26.859Z,4.18
2022-08-16T16:34:00.426Z,6.10
2022-08-16T16:36:33.235Z,4.63
2022-08-16T16:39:03.669Z,4.20
2022-08-16T16:41:32.785Z,4.22
2022-08-16T16:44:03.171Z,4.30
2022-08-16T16:46:43.126Z,5.00
2022-08-16T16:49:15.728Z,6.97
2022-08-16T16:51:49.930Z,5.13
2022-08-16T16:54:27.507Z,9.77
2022-08-16T16:56:58.619Z,4.25
2022-08-16T16:59:28.311Z,7.90
2022-08-16T17:02:38.871Z,5.07
2022-08-16T17:04:50.848Z,5.05
2022-08-16T17:07:20.630Z,3.85
2022-08-16T17:09:53.881Z,7.32
2022-08-16T17:12:24.962Z,7.10
2022-08-16T17:14:59.029Z,3.25
2022-08-16T17:17:29.618Z,7.55
2022-08-16T17:20:00.462Z,6.38
2022-08-16T17:22:32.901Z,3.65
2022-08-16T17:25:03.380Z,5.35
2022-08-16T17:27:37.403Z,4.13
2022-08-16T17:30:16.536Z,11.13
2022-08-16T17:32:54.356Z,6.10
2022-08-16T17:35:34.106Z,5.63
2022-08-16T17:38:06.207Z,4.57
2022-08-16T17:40:46.626Z,5.07
2022-08-16T17:43:28.359Z,6.70
2022-08-16T17:45:58.451Z,6.15
2022-08-16T17:48:28.071Z,5.78
2022-08-16T17:50:59.028Z,6.97
2022-08-16T17:53:28.378Z,5.30
2022-08-16T17:55:57.726Z,8.95
2022-08-16T17:58:27.172Z,12.38
2022-08-16T18:00:59.612Z,5.72
2022-08-16T18:04:02.507Z,10.45
2022-08-16T18:06:23.502Z,8.73
2022-08-16T18:09:00.307Z,10.05
2022-08-16T18:11:33.740Z,5.32
2022-08-16T18:14:03.812Z,6.93
2022-08-16T18:16:33.228Z,13.23
2022-08-16T18:19:02.506Z,6.40
2022-08-16T18:21:50.544Z,10.48
2022-08-16T18:24:20.502Z,8.50
2022-08-16T18:26:49.699Z,4.80
2022-08-16T18:29:20.728Z,6.13
2022-08-16T18:31:54.243Z,9.77
2022-08-16T18:34:23.974Z,9.32
2022-08-16T18:36:56.017Z,7.55
2022-08-16T18:39:27.664Z,7.55
2022-08-16T18:41:59.293Z,8.32
2022-08-16T18:44:34.996Z,6.03
2022-08-16T18:47:07.968Z,4.88
2022-08-16T18:49:38.096Z,10.05
2022-08-16T18:52:08.931Z,6.65
2022-08-16T18:55:01.612Z,7.10
2022-08-16T18:57:29.081Z,8.88
2022-08-16T19:00:00.844Z,5.50
2022-08-16T19:02:57.355Z,5.68
2022-08-16T19:05:24.919Z,8.57
2022-08-16T19:07:55.474Z,11.32
2022-08-16T19:10:24.958Z,7.75
2022-08-16T19:12:54.583Z,6.47
2022-08-16T19:15:29.775Z,6.70
2022-08-16T19:17:59.784Z,6.15
2022-08-16T19:20:31.435Z,8.82
2022-08-16T19:23:10.276Z,7.25
2022-08-16T19:25:49.438Z,6.45
2022-08-16T19:28:49.914Z,12.38
2022-08-16T19:31:16.329Z,5.55
2022-08-16T19:33:53.682Z,6.70
2022-08-16T19:36:33.749Z,4.85
2022-08-16T19:39:08.667Z,6.43
2022-08-16T19:41:40.161Z,8.05
2022-08-16T19:44:10.364Z,7.32
2022-08-16T19:46:43.393Z,8.65
2022-08-16T19:49:15.715Z,8.82
2022-08-16T19:51:46.272Z,12.05
2022-08-16T19:54:17.840Z,4.65
2022-08-16T19:56:47.095Z,9.30
2022-08-16T19:59:20.444Z,11.15
2022-08-16T20:01:52.441Z,6.35
2022-08-16T20:04:23.136Z,7.85
2022-08-16T20:06:52.998Z,7.65
2022-08-16T20:09:25.101Z,7.97
2022-08-16T20:11:55.850Z,7.15
2022-08-16T20:14:26.625Z,5.63
2022-08-16T20:16:57.793Z,8.82
2022-08-16T20:19:28.021Z,7.45
2022-08-16T20:22:01.866Z,7.03
2022-08-16T20:24:35.524Z,6.63
2022-08-16T20:27:09.752Z,5.82
2022-08-16T20:29:46.583Z,8.80
2022-08-16T20:32:22.667Z,7.28
2022-08-16T20:34:59.302Z,12.25
2022-08-16T20:37:28.767Z,5.32
2022-08-16T20:40:28.405Z,7.85
2022-08-16T20:43:01.166Z,7.18
2022-08-16T20:45:31.153Z,7.38
2022-08-16T20:48:00.682Z,6.00
2022-08-16T20:50:29.915Z,10.20
2022-08-16T20:52:59.640Z,8.43
2022-08-16T20:55:31.423Z,5.65
2022-08-16T20:58:01.364Z,10.10
2022-08-16T21:00:32.328Z,6.55
2022-08-16T21:03:01.527Z,6.50
2022-08-16T21:05:34.121Z,11.43
2022-08-16T21:08:27.926Z,8.80
2022-08-16T21:10:54.505Z,6.88
2022-08-16T21:13:25.369Z,8.65
2022-08-16T21:15:55.013Z,6.30
2022-08-16T21:18:24.129Z,6.75
2022-08-16T21:20:53.547Z,9.70
2022-08-16T21:23:23.104Z,9.77
2022-08-16T21:25:58.817Z,9.98
2022-08-16T21:28:38.845Z,16.00
2022-08-16T21:31:12.254Z,5.93
2022-08-16T21:33:42.550Z,9.38
2022-08-16T21:36:12.530Z,10.25
2022-08-16T21:38:41.826Z,8.07
2022-08-16T21:41:13.015Z,6.43
2022-08-16T21:43:42.174Z,9.15
2022-08-16T21:46:11.378Z,11.93
2022-08-16T21:48:40.882Z,12.95
2022-08-16T21:51:13.421Z,7.03
2022-08-16T21:53:43.657Z,15.50
2022-08-16T21:56:17.122Z,13.52
2022-08-16T21:58:46.804Z,10.10
2022-08-16T22:01:22.673Z,10.95
2022-08-16T22:04:36.203Z,10.05
2022-08-16T22:06:42.862Z,8.98
2022-08-16T22:09:15.125Z,13.32
2022-08-16T22:11:45.871Z,10.63
2022-08-16T22:14:14.937Z,9.52
2022-08-16T22:16:44.023Z,9.68
2022-08-16T22:19:13.649Z,10.70
2022-08-16T22:21:42.903Z,10.20
2022-08-16T22:24:12.029Z,8.85
2022-08-16T22:26:43.258Z,13.07
2022-08-16T22:29:15.479Z,9.90
2022-08-16T22:31:44.961Z,10.38
2022-08-16T22:34:14.842Z,12.25
2022-08-16T22:36:44.703Z,10.48
2022-08-16T22:39:15.332Z,9.25
2022-08-16T22:41:45.735Z,9.23
2022-08-16T22:44:16.598Z,10.27
2022-08-16T22:46:45.967Z,8.65
2022-08-16T22:49:15.361Z,10.40
2022-08-16T22:51:44.514Z,12.23
2022-08-16T22:54:41.422Z,11.38
2022-08-16T22:57:03.082Z,8.38
2022-08-16T22:59:33.998Z,11.32
2022-08-16T23:02:07.007Z,8.63
2022-08-16T23:04:36.512Z,11.27
2022-08-16T23:07:06.624Z,10.63
2022-08-16T23:09:36.674Z,11.07
2022-08-16T23:12:07.255Z,12.88
2022-08-16T23:14:37.920Z,10.00
2022-08-16T23:17:07.628Z,9.65
2022-08-16T23:19:37.680Z,9.77
2022-08-16T23:22:07.056Z,9.23
2022-08-16T23:24:38.230Z,15.23
2022-08-16T23:27:25.714Z,10.93
2022-08-16T23:29:56.962Z,9.35
2022-08-16T23:32:25.983Z,8.35
2022-08-16T23:34:55.119Z,9.52
2022-08-16T23:37:27.421Z,13.15
2022-08-16T23:39:56.795Z,10.90
2022-08-16T23:42:44.730Z,16.58
2022-08-16T23:45:18.292Z,9.73
2022-08-16T23:47:47.570Z,8.70
2022-08-16T23:50:17.337Z,14.15
2022-08-16T23:52:59.793Z,15.43
2022-08-16T23:55:31.001Z,12.38
2022-08-16T23:58:00.256Z,14.93
